Terminal Aerodrome Forecast
Issued by NWS

Home | Current Version | Previous Version | Text Only | Print | Product List | Glossary On
Versions: 1 2 3 4 5 6 7 8 9 10 11 12 13 14 15 16 17 18 19 20 21
000
FTAK31 PAJN 201100
TAFAKT
TAF
PAKT 201121Z 2012/2112 14020G27KT 6SM -SHRA BR BKN020 OVC025
      TEMPO 2012/2015 3SM SHRA BR BKN015 OVC020
     FM201700 14011KT P6SM -SHRA SCT015 OVC025
     FM202200 14007KT P6SM VCSH SCT025 BKN050
     FM210700 14011KT P6SM -RA SCT025 OVC050
     FM211000 14015G22KT P6SM -RA BKN030 OVC040
      AMD LTD TO CLD VIS AND WIND 2012/2015=

USA.gov is the U.S. government's official web portal to all federal, state and local government web resources and services.